Latest Weather Observations for Nhill Aerodrome

IDV60801

Issued at 5:31 pm EDT Thursday 2 April 2015 (issued every 30 minutes, with the page automatically refreshed every 10 minutes)

About weather observations | Map of weather stations | Latest weather observations for VIC | Other Formats
Station Details ID: 078015 Name: NHILL AERODROME Lat: -36.31 Lon: 141.65 Height: 138.9 m
Data from the previous 72 hours. | See also: Recent months at Nhill Aerodrome
Date/Time
EDT
Temp
°C
App
Temp
°C
Dew
Point
Rel
Hum
%
Delta-T
°C
Wind Press
QNH
hPa
Press
MSL
hPa
Rain
since 9 am
mm
Dir
 
Spd
km/h
Gust
km/h
Spd
kts
Gust
kts
02/05:30pm 18.8 11.9 2.6 34 7.5 SSE 28 41 15 22 1022.5 1022.3 0.0
02/05:00pm 19.6 12.8 2.9 33 7.8 SSE 28 48 15 26 1022.5 1022.3 0.0
02/04:58pm 19.4 12.6 3.2 34 7.6 SSE 28 48 15 26 1022.4 1022.2 0.0
02/04:30pm 19.6 12.7 2.5 32 8.0 SSE 28 39 15 21 1022.7 1022.5 0.0
02/04:00pm 19.7 13.0 3.8 35 7.6 SSE 28 37 15 20 1022.8 1022.6 0.0
02/03:30pm 19.2 12.8 3.4 35 7.5 SE 26 37 14 20 1022.9 1022.7 0.0
02/03:00pm 19.3 12.5 3.1 34 7.6 SSE 28 39 15 21 1023.1 1022.9 0.0
02/02:30pm 19.2 11.6 2.6 33 7.7 SSE 32 46 17 25 1023.4 1023.2 0.0
02/02:00pm 18.4 10.9 3.5 37 7.0 S 32 44 17 24 1023.7 1023.5 0.0
02/01:30pm 18.1 10.8 4.3 40 6.6 SSE 32 43 17 23 1024.2 1024.0 0.0
02/01:00pm 17.8 10.4 5.1 43 6.1 SSE 33 44 18 24 1024.6 1024.5 0.0
02/12:42pm 17.5 10.3 4.8 43 6.1 SSE 32 50 17 27 1024.5 1024.3 0.0
02/12:30pm 17.0 10.2 5.3 46 5.7 SSE 30 39 16 21 1024.5 1024.3 0.0
02/12:00pm 16.4 9.7 5.7 49 5.2 SSE 30 39 16 21 1024.7 1024.6 0.0
02/11:30am 15.0 7.2 4.7 50 4.8 SSE 35 46 19 25 1024.7 1024.6 0.0
02/11:00am 14.6 7.0 5.7 55 4.2 SSE 35 43 19 23 1024.6 1024.5 0.0
02/10:30am 13.8 6.8 6.7 62 3.5 SSE 33 43 18 23 1024.6 1024.5 0.0
02/10:00am 12.9 8.0 7.1 68 2.8 S 22 32 12 17 1024.5 1024.3 0.0
02/09:30am 11.7 7.0 7.6 76 2.0 S 22 30 12 16 1024.2 1024.0 0.0
02/09:00am 10.5 6.8 8.1 85 1.2 S 17 24 9 13 1023.9 1023.7 1.0
02/08:30am 9.5 6.3 8.6 94 0.4 S 15 20 8 11 1023.3 1023.1 1.0
02/08:00am 9.1 5.1 8.3 95 0.4 S 19 24 10 13 1022.7 1022.5 1.0
02/07:30am 9.3 5.7 8.5 95 0.4 S 17 22 9 12 1022.4 1022.2 1.0
02/07:00am 9.3 5.8 8.7 96 0.3 S 17 19 9 10 1021.9 1021.7 1.0
02/06:30am 9.2 6.5 8.9 98 0.1 SSW 13 17 7 9 1021.5 1021.3 1.0
02/06:00am 9.3 6.5 8.7 96 0.3 SSW 13 15 7 8 1021.1 1020.9 1.0
02/05:30am 9.8 6.7 8.9 94 0.4 SSW 15 19 8 10 1020.5 1020.4 1.0
02/05:00am 10.5 6.7 9.1 91 0.7 SSW 19 24 10 13 1020.3 1020.2 1.0
02/04:30am 11.5 7.3 9.6 88 1.0 S 22 30 12 16 1020.2 1020.1 1.0
02/04:00am 12.1 8.1 10.5 90 0.8 SSW 22 30 12 16 1020.1 1020.0 1.0
02/03:30am 12.6 8.4 11.2 91 0.7 SSW 24 35 13 19 1019.8 1019.7 1.0
02/03:00am 13.4 9.3 11.5 88 1.0 SSW 24 32 13 17 1019.8 1019.7 1.0
02/02:30am 13.9 10.5 12.6 92 0.7 SSW 22 30 12 16 1019.6 1019.5 1.0
02/02:00am 14.4 9.7 13.1 92 0.7 SSW 30 37 16 20 1019.3 1019.2 1.0
02/01:30am 14.7 10.2 13.7 94 0.6 SSW 30 39 16 21 1018.9 1018.8 1.0
02/01:00am 15.3 11.6 15.1 99 0.1 SSW 28 39 15 21 1018.5 1018.4 1.0
02/12:30am 15.6 11.3 15.3 98 0.2 SW 32 41 17 22 1018.3 1018.1 1.0
02/12:08am 16.2 13.0 16.2 100 0.0 WSW 28 46 15 25 1018.0 1017.8 1.0
02/12:00am 17.0 15.6 17.0 100 0.0 WSW 20 28 11 15 1017.9 1017.7 0.8
 
Date/Time
EDT
Temp
°C
App
Temp
°C
Dew
Point
Rel
Hum
%
Delta-T
°C
Wind Press
QNH
hPa
Press
MSL
hPa
Rain
since 9 am
mm
Dir
 
Spd
km/h
Gust
km/h
Spd
kts
Gust
kts
01/11:30pm 17.0 15.2 17.0 100 0.0 WSW 22 32 12 17 1017.9 1017.7 0.8
01/11:00pm 17.1 15.7 17.1 100 0.0 WSW 20 28 11 15 1017.6 1017.4 0.8
01/10:30pm 16.9 15.5 16.9 100 0.0 WSW 20 30 11 16 1017.4 1017.2 0.8
01/10:00pm 16.8 15.3 16.8 100 0.0 WSW 20 30 11 16 1016.9 1016.7 0.8
01/09:30pm 17.0 13.7 17.0 100 0.0 WSW 30 39 16 21 1016.5 1016.3 0.6
01/09:13pm 17.5 14.4 17.5 100 0.0 WSW 30 43 16 23 1016.5 1016.3 0.0
01/09:00pm 18.1 16.8 16.9 93 0.7 WSW 19 24 10 13 1016.1 1015.9 0.0
01/08:30pm 18.9 14.0 15.4 80 2.1 WSW 35 46 19 25 1015.7 1015.5 0.0
01/08:01pm 21.2 15.3 13.6 62 4.4 WSW 37 56 20 30 1015.0 1014.8 0.0
01/08:00pm 21.3 15.8 13.5 61 4.5 WSW 35 50 19 27 1015.0 1014.8 0.0
01/07:30pm 23.7 17.3 10.7 44 7.3 WSW 35 43 19 23 1014.2 1014.0 0.0
01/07:00pm 25.6 17.5 8.6 34 9.2 W 41 50 22 27 1013.5 1013.3 0.0
01/06:30pm 27.2 19.3 6.0 26 11.1 W 37 50 20 27 1012.7 1012.6 0.0
01/06:28pm 27.7 20.1 5.9 25 11.4 WNW 35 48 19 26 1012.7 1012.6 0.0
01/06:22pm 28.9 21.8 3.7 20 12.8 WNW 30 48 16 26 1012.4 1012.3 0.0
01/06:00pm 29.2 22.5 3.9 20 12.9 NW 28 41 15 22 1012.3 1012.2 0.0
01/05:30pm 29.2 21.1 3.2 19 13.1 NW 35 46 19 25 1012.1 1011.9 0.0
01/05:00pm 29.5 21.4 3.5 19 13.2 NW 35 48 19 26 1012.2 1012.0 0.0
01/04:30pm 29.8 22.0 2.9 18 13.6 NNW 33 46 18 25 1012.6 1012.5 0.0
01/04:00pm 30.0 22.2 3.1 18 13.6 NNW 33 48 18 26 1012.8 1012.7 0.0
01/03:32pm 30.2 23.1 3.3 18 13.7 NNW 30 48 16 26 1013.2 1013.0 0.0
01/03:30pm 30.3 23.2 3.4 18 13.7 NNW 30 43 16 23 1013.3 1013.1 0.0
01/03:12pm 29.8 22.0 2.9 18 13.6 NNW 33 54 18 29 1013.5 1013.3 0.0
01/03:00pm 30.3 22.6 3.4 18 13.7 NNW 33 50 18 27 1013.7 1013.5 0.0
01/02:34pm 29.6 22.0 2.8 18 13.5 NNW 32 50 17 27 1014.1 1013.9 0.0
01/02:30pm 30.0 22.2 3.1 18 13.6 NNW 33 50 18 27 1014.2 1014.0 0.0
01/02:27pm 30.0 22.4 3.1 18 13.6 NNW 32 50 17 27 1014.1 1013.9 0.0
01/02:00pm 29.0 22.2 3.1 19 13.0 NNW 28 39 15 21 1014.6 1014.4 0.0
01/01:30pm 29.1 22.3 3.1 19 13.1 NNW 28 41 15 22 1015.3 1015.1 0.0
01/01:00pm 27.7 21.2 2.7 20 12.4 NNW 26 39 14 21 1015.6 1015.4 0.0
01/12:30pm 26.9 20.8 2.7 21 11.9 N 24 37 13 20 1016.1 1015.9 0.0
01/12:00pm 26.6 20.5 2.5 21 11.8 N 24 35 13 19 1016.4 1016.2 0.0
01/11:30am 26.6 21.0 3.2 22 11.6 NNW 22 32 12 17 1016.8 1016.6 0.0
01/11:00am 24.8 19.5 2.9 24 10.7 NNW 20 32 11 17 1017.2 1017.0 0.0
01/10:30am 23.8 18.5 3.2 26 10.0 N 20 30 11 16 1017.5 1017.1 0.0
01/10:00am 23.4 18.2 3.4 27 9.7 N 20 32 11 17 1017.6 1017.2 0.0
01/09:30am 21.3 16.2 3.0 30 8.7 N 19 30 10 16 1017.8 1017.4 0.0
01/09:00am 19.5 15.2 3.2 34 7.7 N 15 26 8 14 1017.8 1017.4 0.0
01/08:30am 17.7 13.8 3.6 39 6.6 N 13 17 7 9 1017.8 1017.4 0.0
01/08:00am 17.5 14.0 3.4 39 6.6 N 11 19 6 10 1017.7 1017.3 0.0
01/07:30am 17.0 13.5 3.7 41 6.2 N 11 19 6 10 1017.6 1017.2 0.0
01/07:00am 17.2 13.4 3.8 41 6.3 NNE 13 19 7 10 1017.7 1017.3 0.0
01/06:30am 17.2 14.1 3.8 41 6.3 NNE 9 15 5 8 1017.8 1017.4 0.0
01/06:00am 17.5 14.5 4.1 41 6.3 NNE 9 13 5 7 1017.6 1017.2 0.0
01/05:30am 17.8 14.9 4.4 41 6.4 N 9 13 5 7 1017.8 1017.4 0.0
01/05:00am 17.3 14.7 4.3 42 6.2 N 7 11 4 6 1018.0 1017.6 0.0
01/04:30am 18.1 15.5 4.3 40 6.6 N 7 13 4 7 1018.4 1018.0 0.0
01/04:00am 18.4 15.4 4.2 39 6.8 N 9 15 5 8 1018.7 1018.4 0.0
01/03:30am 18.5 15.5 4.3 39 6.8 NNE 9 13 5 7 1019.1 1018.8 0.0
01/03:00am 18.6 16.1 4.8 40 6.7 NNE 7 11 4 6 1019.2 1018.9 0.0
01/02:30am 19.1 16.6 4.8 39 6.9 NNE 7 11 4 6 1019.7 1019.4 0.0
01/02:00am 16.8 14.4 4.5 44 5.8 NE 6 9 3 5 1019.8 1019.5 0.0
01/01:30am 17.4 16.1 4.0 41 6.3 CALM 0 0 0 0 1020.0 1019.7 0.0
01/01:00am 19.4 16.5 4.7 38 7.1 NE 9 11 5 6 1020.2 1019.9 0.0
01/12:30am 20.5 16.9 4.9 36 7.7 NE 13 15 7 8 1020.2 1019.9 0.0
01/12:00am 19.9 16.3 5.2 38 7.2 ENE 13 13 7 7 1020.5 1020.2 0.0
 
Date/Time
EDT
Temp
°C
App
Temp
°C
Dew
Point
Rel
Hum
%
Delta-T
°C
Wind Press
QNH
hPa
Press
MSL
hPa
Rain
since 9 am
mm
Dir
 
Spd
km/h
Gust
km/h
Spd
kts
Gust
kts
31/11:30pm 20.6 17.4 5.0 36 7.7 ENE 11 13 6 7 1021.0 1020.6 0.0
31/11:00pm 21.2 18.0 5.1 35 8.0 ENE 11 13 6 7 1021.0 1020.6 0.0
31/10:30pm 18.6 15.1 3.6 37 7.1 E 11 11 6 6 1021.0 1020.6 0.0
31/10:00pm 20.2 17.8 4.3 35 7.7 S 6 7 3 4 1021.2 1020.8 0.0
31/09:30pm 19.5 16.9 4.4 37 7.3 S 7 9 4 5 1021.1 1020.7 0.0
31/09:00pm 21.0 18.0 4.1 33 8.2 E 9 11 5 6 1021.2 1020.8 0.0
31/08:30pm 21.3 18.7 4.0 32 8.4 SE 7 9 4 5 1020.9 1020.5 0.0
31/08:00pm 24.3 23.2 5.1 29 9.7 CALM 0 0 0 0 1020.9 1020.5 0.0
31/07:30pm 24.3 23.1 4.6 28 9.9 CALM 0 0 0 0 1020.5 1020.2 0.0
31/07:00pm 26.9 25.8 5.2 25 11.2 CALM 0 0 0 0 1020.5 1020.2 0.0
31/06:30pm 28.4 27.0 5.3 23 12.0 WNW 2 7 1 4 1020.4 1020.1 0.0
31/06:00pm 28.7 26.5 5.5 23 12.1 N 6 19 3 10 1020.3 1020.0 0.0
31/05:30pm 29.4 27.2 5.5 22 12.6 WSW 6 11 3 6 1020.5 1020.2 0.0
31/05:00pm 29.2 26.3 4.6 21 12.7 NW 9 20 5 11 1020.9 1020.5 0.0
31/04:30pm 29.6 26.9 5.6 22 12.7 NW 9 19 5 10 1021.1 1020.7 0.0
31/04:00pm 27.7 24.5 5.3 24 11.6 WNW 11 20 6 11 1021.3 1020.9 0.0
31/03:30pm 27.9 24.8 5.5 24 11.7 NNW 11 20 6 11 1021.7 1021.3 0.0
31/03:00pm 28.0 24.9 5.6 24 11.7 NW 11 26 6 14 1022.1 1021.7 0.0
31/02:30pm 27.4 24.4 6.2 26 11.2 NNW 11 19 6 10 1022.6 1022.2 0.0
31/02:00pm 26.9 23.5 5.8 26 11.0 NNW 13 28 7 15 1023.0 1022.6 0.0
31/01:30pm 25.7 22.4 6.3 29 10.1 NNW 13 20 7 11 1023.4 1023.0 0.0
31/01:00pm 26.0 23.4 7.6 31 9.8 N 11 19 6 10 1024.0 1023.6 0.0
31/12:30pm 24.6 21.6 7.7 34 9.0 NNE 13 19 7 10 1024.4 1024.0 0.0
31/12:00pm 23.6 21.2 8.8 39 7.9 NNE 11 17 6 9 1024.9 1024.6 0.0
31/11:30am 23.0 20.8 9.4 42 7.4 NE 11 15 6 8 1025.3 1025.0 0.0
31/11:00am 22.0 19.2 9.9 46 6.6 NE 15 24 8 13 1025.6 1025.3 0.0
31/10:30am 20.7 17.1 9.9 50 5.8 ENE 19 26 10 14 1025.6 1025.3 0.0
31/10:00am 19.2 15.6 9.7 54 5.1 ENE 19 26 10 14 1025.7 1025.4 0.0
31/09:30am 17.1 13.4 9.5 61 4.0 E 19 22 10 12 1025.9 1025.6 0.0
31/09:00am 15.3 12.3 9.2 67 3.1 E 15 20 8 11 1026.0 1025.7 0.0
31/08:30am 13.1 10.8 9.0 76 2.1 ESE 11 15 6 8 1025.8 1025.5 0.0
31/08:00am 11.5 8.8 8.9 84 1.3 E 13 17 7 9 1025.4 1025.1 0.0
31/07:30am 10.0 8.0 6.9 81 1.5 ESE 7 13 4 7 1025.3 1025.0 0.0
31/07:00am 10.5 8.6 6.6 77 1.8 SE 6 9 3 5 1025.2 1024.9 0.0
31/06:30am 12.9 9.3 8.4 74 2.3 ESE 17 20 9 11 1024.8 1024.5 0.0
31/06:00am 12.8 9.6 8.3 74 2.2 ESE 15 19 8 10 1024.6 1024.2 0.0
31/05:30am 12.1 9.5 7.8 75 2.1 ESE 11 13 6 7 1024.5 1024.1 0.0
31/05:00am 12.3 9.4 8.0 75 2.1 ESE 13 17 7 9 1024.4 1024.0 0.0
31/04:30am 11.7 9.0 7.4 75 2.1 ESE 11 13 6 7 1024.5 1024.1 0.0
31/04:00am 10.8 8.8 6.9 77 1.9 SSE 7 9 4 5 1024.6 1024.2 0.0
31/03:30am 10.5 8.2 5.9 73 2.1 SSE 7 7 4 4 1024.7 1024.4 0.0
31/03:00am 10.9 8.6 5.9 71 2.3 SSE 7 9 4 5 1024.8 1024.5 0.0
31/02:30am 11.2 8.2 6.1 71 2.4 SSE 11 11 6 6 1024.9 1024.6 0.0
31/02:00am 10.7 7.8 4.8 67 2.7 S 9 11 5 6 1025.0 1024.7 0.0
31/01:30am 13.2 11.0 6.3 63 3.3 SE 7 7 4 4 1025.0 1024.7 0.0
31/01:00am 13.4 12.6 6.7 64 3.2 CALM 0 0 0 0 1024.9 1024.6 0.0
31/12:30am 14.0 12.8 6.4 60 3.7 SSE 2 7 1 4 1025.1 1024.8 0.0
31/12:00am 14.4 12.3 6.7 60 3.7 SSE 7 9 4 5 1025.3 1025.0 0.0
 
Date/Time
EDT
Temp
°C
App
Temp
°C
Dew
Point
Rel
Hum
%
Delta-T
°C
Wind Press
QNH
hPa
Press
MSL
hPa
Rain
since 9 am
mm
Dir
 
Spd
km/h
Gust
km/h
Spd
kts
Gust
kts
30/11:30pm 14.3 11.4 6.4 59 3.8 SSE 11 11 6 6 1025.4 1025.1 0.0
30/11:00pm 14.5 11.5 6.1 57 4.0 SSE 11 11 6 6 1025.5 1025.2 0.0
30/10:30pm 15.4 12.8 6.1 54 4.5 S 9 11 5 6 1025.4 1025.1 0.0
30/10:00pm 16.4 13.4 6.2 51 5.0 S 11 11 6 6 1025.3 1025.0 0.0
30/09:30pm 16.8 13.8 6.0 49 5.3 SSW 11 13 6 7 1025.2 1024.9 0.0
30/09:00pm 17.4 13.6 6.0 47 5.6 SSW 15 15 8 8 1024.9 1024.6 0.0
30/08:30pm 18.4 14.6 5.9 44 6.2 SSW 15 17 8 9 1024.6 1024.2 0.0
30/08:00pm 19.9 15.8 6.3 41 6.8 SSW 17 19 9 10 1024.2 1023.8 0.0
30/07:30pm 21.9 17.4 7.0 38 7.7 SSW 20 26 11 14 1024.0 1023.6 0.0
30/07:00pm 23.3 17.8 7.4 36 8.3 S 26 33 14 18 1023.7 1023.3 0.0
30/06:30pm 24.9 20.2 6.1 30 9.7 SW 20 24 11 13 1023.4 1023.0 0.0
30/06:00pm 25.6 22.6 5.8 28 10.2 W 11 19 6 10 1023.1 1022.7 0.0

Other Formats:

Comma delimited format used in spreadsheet applications
http://www.bom.gov.au/fwo/IDV60801/IDV60801.94827.axf

JavaScript Object Notation format (JSON) in row-major order
http://www.bom.gov.au/fwo/IDV60801/IDV60801.94827.json